Capt. T Le — WDC9568 — position and weather

sailwx.info

Track history (hours):
 
Tides and Currents Weather Stations Pressure Air Temp Water Temp Dewpoint Dewpoint Depression Visibility Wind Speed Wind Dir Waves Ship Positions

Capt. T Le

Owner: SO CAL SHIP SERVICES, INC, TERMINAL ISLAND, CA. More information available from US FCC via Universal Licensing System and Coast Guard Vessel Documentation Center.

Last reported at 2017-Oct-23 00:30 UTC. Time now 2017-Oct-23 00:34 UTC.
Position N 34°09' W 119°12'.

Length 38 m; draft 2 m.

Type: Ship (hazmat cat B). MMSI: 367104030.

Date/timePositionNaut miles runAvg speedWind from/ knotsBaromVisibWave heightAir tempDewpointWater temp
2017-Oct-23 00:30N 34°09' W 119°12'2 3.6
2017-Oct-22 23:59N 34°09' W 119°14'714.4
2017-Oct-22 23:29N 34°11' W 119°22'2 3.4
2017-Oct-22 23:00N 34°10' W 119°24'714.2
2017-Oct-22 22:30N 34°07' W 119°16'3 5.2
2017-Oct-22 21:50N 34°09' W 119°12'0 0.0
2017-Oct-22 21:29N 34°09' W 119°12'0 0.0
2017-Oct-22 20:58N 34°09' W 119°12'0 0.0
2017-Oct-22 20:29N 34°09' W 119°12'0 0.0
2017-Oct-22 20:00N 34°09' W 119°12'0 0.0
2017-Oct-22 19:24N 34°09' W 119°12'0 0.0
2017-Oct-22 18:57N 34°09' W 119°12'0 0.0
2017-Oct-22 18:21N 34°09' W 119°12'0 0.0
2017-Oct-22 18:00N 34°09' W 119°12'0 0.0
2017-Oct-22 17:30N 34°09' W 119°12'0 0.0
2017-Oct-22 16:59N 34°09' W 119°12'0 0.2
2017-Oct-22 16:26N 34°09' W 119°12'3 6.4
2017-Oct-22 16:00N 34°08' W 119°15'5 9.6
2017-Oct-22 15:30N 34°12' W 119°17'612.5
2017-Oct-22 14:59N 34°11' W 119°25'4 7.9
2017-Oct-22 14:29N 34°10' W 119°21'713.8
2017-Oct-22 13:59N 34°09' W 119°12'0 0.0
2017-Oct-22 13:30N 34°09' W 119°12'0 0.0
2017-Oct-22 12:57N 34°09' W 119°12'0 0.0
2017-Oct-22 12:20N 34°09' W 119°12'0 0.0
2017-Oct-22 11:57N 34°09' W 119°12'0 0.0
2017-Oct-22 11:21N 34°09' W 119°12'0 0.0
2017-Oct-22 10:57N 34°09' W 119°12'0 0.0
2017-Oct-22 10:30N 34°09' W 119°12'0 0.0
2017-Oct-22 10:00N 34°09' W 119°12'0 0.0
2017-Oct-22 09:30N 34°09' W 119°12'0 0.0
2017-Oct-22 09:00N 34°09' W 119°12'0 0.0
2017-Oct-22 08:21N 34°09' W 119°12'0 0.0
2017-Oct-22 07:59N 34°09' W 119°12'0 0.0
2017-Oct-22 07:29N 34°09' W 119°12'0 0.0
2017-Oct-22 06:57N 34°09' W 119°12'0 0.0
2017-Oct-22 06:29N 34°09' W 119°12'0 0.0
2017-Oct-22 06:00N 34°09' W 119°12'0 0.0
2017-Oct-22 05:30N 34°09' W 119°12'0 0.0
2017-Oct-22 05:00N 34°09' W 119°12'0 0.0
2017-Oct-22 04:28N 34°09' W 119°12'0 0.0
2017-Oct-22 03:55N 34°09' W 119°12'0 0.0
2017-Oct-22 03:24N 34°09' W 119°12'0 0.0
2017-Oct-22 02:48N 34°09' W 119°12'0 0.0
2017-Oct-22 02:28N 34°09' W 119°12'0 0.0
2017-Oct-22 02:00N 34°09' W 119°12'0 0.0
2017-Oct-22 01:30N 34°09' W 119°12'0 0.0
2017-Oct-22 00:52N 34°09' W 119°12'0 0.0
2017-Oct-22 00:29N 34°09' W 119°12'0 0.0
2017-Oct-22 00:00N 34°09' W 119°12'0 0.0
2017-Oct-21 23:30N 34°09' W 119°12'0 0.0
2017-Oct-21 23:00N 34°09' W 119°12'0 0.0
2017-Oct-21 22:29N 34°09' W 119°12'0 0.0
2017-Oct-21 21:55N 34°09' W 119°12'0 0.0
2017-Oct-21 21:26N 34°09' W 119°12'0 0.0
2017-Oct-21 20:58N 34°09' W 119°12'0 0.0
2017-Oct-21 20:16N 34°09' W 119°12'0 0.0
2017-Oct-21 19:59N 34°09' W 119°12'0 0.6
2017-Oct-21 19:30N 34°09' W 119°12'611.7
2017-Oct-21 19:00N 34°10' W 119°19'611.8
2017-Oct-21 18:28N 34°12' W 119°26'715.5
2017-Oct-21 18:00N 34°19' W 119°30'4 7.2
2017-Oct-21 17:27N 34°23' W 119°30'4 9.5
2017-Oct-21 16:58N 34°19' W 119°29'816.7
2017-Oct-21 16:30N 34°12' W 119°25'4 7.7
2017-Oct-21 16:00N 34°10' W 119°21'714.2
2017-Oct-21 15:30N 34°09' W 119°12'4 7.2
2017-Oct-21 15:00N 34°10' W 119°17'1 0.6
2017-Oct-21 13:59N 34°09' W 119°16'4 7.1
2017-Oct-21 13:29N 34°09' W 119°12'0 0.0
2017-Oct-21 12:57N 34°09' W 119°12'0 0.0
2017-Oct-21 12:28N 34°09' W 119°12'0 0.0
2017-Oct-21 12:00N 34°09' W 119°12'0 0.0
2017-Oct-21 11:26N 34°09' W 119°12'0 0.0
2017-Oct-21 10:59N 34°09' W 119°12'0 0.0
2017-Oct-21 10:30N 34°09' W 119°12'0 0.0
2017-Oct-21 09:59N 34°09' W 119°12'0 0.0
2017-Oct-21 09:27N 34°09' W 119°12'0 0.0
2017-Oct-21 09:00N 34°09' W 119°12'0 0.0
2017-Oct-21 08:26N 34°09' W 119°12'0 0.0
2017-Oct-21 07:54N 34°09' W 119°12'0 0.0
2017-Oct-21 07:29N 34°09' W 119°12'0 0.0
2017-Oct-21 06:53N 34°09' W 119°12'0 0.0
2017-Oct-21 06:27N 34°09' W 119°12'0 0.0
2017-Oct-21 05:58N 34°09' W 119°12'0 0.0
2017-Oct-21 05:30N 34°09' W 119°12'0 0.0
2017-Oct-21 05:00N 34°09' W 119°12'0 0.0
2017-Oct-21 04:25N 34°09' W 119°12'0 0.0
2017-Oct-21 03:45N 34°09' W 119°12'0 0.0
2017-Oct-21 03:24N 34°09' W 119°12'0 0.0
2017-Oct-21 02:15N 34°09' W 119°12'0 0.0
2017-Oct-21 01:57N 34°09' W 119°12'0 0.0
2017-Oct-21 01:26N 34°09' W 119°12'0 0.0
2017-Oct-21 01:00N 34°09' W 119°12'0 0.0
2017-Oct-21 00:28N 34°09' W 119°12'0 0.0
2017-Oct-20 23:40N 34°09' W 119°12'0 0.0
2017-Oct-20 23:29N 34°09' W 119°12'0 0.0
2017-Oct-20 23:00N 34°09' W 119°12'0 0.0
2017-Oct-20 22:25N 34°09' W 119°12'0 0.0
2017-Oct-20 22:00N 34°09' W 119°12'0 0.0
2017-Oct-20 21:28N 34°09' W 119°12'0 0.0
2017-Oct-20 20:54N 34°09' W 119°12'0 0.0
2017-Oct-20 20:26N 34°09' W 119°12'0 0.1
2017-Oct-20 19:59N 34°09' W 119°12'0 0.0
2017-Oct-20 15:42N 34°09' W 119°12'0 0.0
2017-Oct-20 15:28N 34°09' W 119°12'0 0.0
2017-Oct-20 15:00N 34°09' W 119°12'0 0.0
2017-Oct-20 14:29N 34°09' W 119°12'0 0.0
2017-Oct-20 13:21N 34°09' W 119°12'0 0.0
2017-Oct-20 12:58N 34°09' W 119°12'0 0.0
2017-Oct-20 12:12N 34°09' W 119°12'0 0.0
2017-Oct-20 11:55N 34°09' W 119°12'0 0.0
2017-Oct-20 11:30N 34°09' W 119°12'0 0.0
2017-Oct-20 10:51N 34°09' W 119°12'0 0.0
2017-Oct-20 10:29N 34°09' W 119°12'0 0.0
2017-Oct-20 09:59N 34°09' W 119°12'0 0.0
2017-Oct-20 09:29N 34°09' W 119°12'0 0.0
2017-Oct-20 08:54N 34°09' W 119°12'0 0.0
2017-Oct-20 08:26N 34°09' W 119°12'0 0.0
2017-Oct-20 07:43N 34°09' W 119°12'0 0.0
2017-Oct-20 07:30N 34°09' W 119°12'0 0.0
2017-Oct-20 07:00N 34°09' W 119°12'0 0.0
2017-Oct-20 06:18N 34°09' W 119°12'0 0.0
2017-Oct-20 06:00N 34°09' W 119°12'0 0.0
2017-Oct-20 05:27N 34°09' W 119°12'0 0.0
2017-Oct-20 04:59N 34°09' W 119°12'0 0.0
2017-Oct-20 04:28N 34°09' W 119°12'0 0.0
2017-Oct-20 03:58N 34°09' W 119°12'0 0.0
2017-Oct-20 03:11N 34°09' W 119°12'0 0.0
2017-Oct-20 02:56N 34°09' W 119°12'4 9.8
2017-Oct-20 02:30N 34°09' W 119°17'612.5
2017-Oct-20 02:00N 34°11' W 119°25'815.0
2017-Oct-20 01:29N 34°09' W 119°15'3 3.3
2017-Oct-20 00:39N 34°09' W 119°12'0 0.0
2017-Oct-20 00:17N 34°09' W 119°12'311.5
2017-Oct-20 00:00N 34°07' W 119°16'3 6.6
2017-Oct-19 23:30N 34°09' W 119°12'4 8.0
2017-Oct-19 23:00N 34°09' W 119°17'713.6
2017-Oct-19 22:29N 34°11' W 119°25'0 0.2
2017-Oct-19 21:56N 34°11' W 119°25'0 0.1
2017-Oct-19 21:29N 34°11' W 119°25'715.0
2017-Oct-19 21:00N 34°07' W 119°17'5 9.5
2017-Oct-19 20:30N 34°10' W 119°23'3 5.7
2017-Oct-19 20:00N 34°11' W 119°25'815.3
2017-Oct-19 19:28N 34°19' W 119°30'4 9.7
2017-Oct-19 19:00N 34°23' W 119°30'0 0.0
2017-Oct-19 18:30N 34°23' W 119°30'713.4
2017-Oct-19 18:00N 34°16' W 119°29'612.8
2017-Oct-19 17:30N 34°11' W 119°25'0 0.1
2017-Oct-19 16:57N 34°11' W 119°25'3 5.5
2017-Oct-19 16:29N 34°10' W 119°22'816.3
2017-Oct-19 16:00N 34°09' W 119°13'1 1.4
2017-Oct-19 15:30N 34°09' W 119°12'510.7
2017-Oct-19 15:00N 34°10' W 119°19'611.3
2017-Oct-19 14:30N 34°11' W 119°25'815.3
2017-Oct-19 14:00N 34°09' W 119°16'3 6.4
2017-Oct-19 13:29N 34°09' W 119°12'0 0.0
2017-Oct-19 13:00N 34°09' W 119°12'1 1.4
2017-Oct-19 12:31N 34°09' W 119°13'0 0.9
2017-Oct-19 12:01N 34°09' W 119°12'0 0.6
2017-Oct-19 11:29N 34°09' W 119°12'0 0.0
2017-Oct-19 11:00N 34°09' W 119°12'0 0.0
2017-Oct-19 10:30N 34°09' W 119°12'0 0.0
2017-Oct-19 10:00N 34°09' W 119°12'0 0.0
2017-Oct-19 09:31N 34°09' W 119°12'0 0.0
2017-Oct-19 08:58N 34°09' W 119°12'0 0.0
2017-Oct-19 08:29N 34°09' W 119°12'0 0.0
2017-Oct-19 07:58N 34°09' W 119°12'0 0.0
2017-Oct-19 07:30N 34°09' W 119°12'0 0.0
2017-Oct-19 07:00N 34°09' W 119°12'0 0.0
2017-Oct-19 06:29N 34°09' W 119°12'0 0.0
2017-Oct-19 06:01N 34°09' W 119°12'0 0.0
2017-Oct-19 05:31N 34°09' W 119°12'0 0.0
2017-Oct-19 04:59N 34°09' W 119°12'0 0.0
2017-Oct-19 04:29N 34°09' W 119°12'0 0.0
2017-Oct-19 03:59N 34°09' W 119°12'0 0.0
2017-Oct-19 03:27N 34°09' W 119°12'0 0.0
2017-Oct-19 03:01N 34°09' W 119°12'1 1.0
2017-Oct-19 02:30N 34°09' W 119°13'817.1
2017-Oct-19 02:00N 34°10' W 119°23'0 0.3
2017-Oct-19 01:30N 34°10' W 119°22'815.5
2017-Oct-19 01:00N 34°09' W 119°13'1 2.0
2017-Oct-19 00:30N 34°09' W 119°12'4 8.4
2017-Oct-19 00:00N 34°07' W 119°17'4 8.1
2017-Oct-18 23:30N 34°09' W 119°12'5 8.8
2017-Oct-18 22:59N 34°07' W 119°17'715.6
2017-Oct-18 22:30N 34°11' W 119°25'713.8
2017-Oct-18 22:00N 34°09' W 119°17'4 8.1
2017-Oct-18 21:30N 34°09' W 119°12'0 0.0
2017-Oct-18 21:00N 34°09' W 119°12'0 0.0
2017-Oct-18 20:30N 34°09' W 119°12'5 9.4
2017-Oct-18 20:00N 34°07' W 119°17'714.5
2017-Oct-18 19:30N 34°11' W 119°25'510.0
2017-Oct-18 19:01N 34°10' W 119°19'611.3
2017-Oct-18 18:28N 34°09' W 119°12'0 0.0
2017-Oct-18 17:59N 34°09' W 119°12'0 0.0
2017-Oct-18 17:30N 34°09' W 119°12'0 0.0
2017-Oct-18 16:57N 34°09' W 119°12'0 0.0
2017-Oct-18 16:26N 34°09' W 119°12'0 0.7
2017-Oct-18 16:00N 34°09' W 119°12'4 7.6
2017-Oct-18 15:29N 34°07' W 119°17'713.4
2017-Oct-18 15:00N 34°10' W 119°24'8 8.1
2017-Oct-18 14:00N 34°08' W 119°14'2 3.9
2017-Oct-18 13:28N 34°09' W 119°12'0 0.0
2017-Oct-18 12:59N 34°09' W 119°12'0 0.0
2017-Oct-18 12:28N 34°09' W 119°12'0 0.0
2017-Oct-18 11:58N 34°09' W 119°12'0 0.0
2017-Oct-18 11:29N 34°09' W 119°12'0 0.0
2017-Oct-18 11:00N 34°09' W 119°12'0 0.0
2017-Oct-18 10:30N 34°09' W 119°12'0 0.0
2017-Oct-18 09:59N 34°09' W 119°12'0 0.0
2017-Oct-18 09:30N 34°09' W 119°12'0 0.0
2017-Oct-18 09:00N 34°09' W 119°12'0 0.0
2017-Oct-18 08:28N 34°09' W 119°12'0 0.0
2017-Oct-18 07:59N 34°09' W 119°12'0 0.0
2017-Oct-18 07:23N 34°09' W 119°12'0 0.0
2017-Oct-18 06:46N 34°09' W 119°12'0 0.0
2017-Oct-18 06:30N 34°09' W 119°12'0 0.0
2017-Oct-18 06:00N 34°09' W 119°12'0 0.0
2017-Oct-18 05:30N 34°09' W 119°12'0 0.0
2017-Oct-18 04:51N 34°09' W 119°12'0 0.0
2017-Oct-18 04:20N 34°09' W 119°12'0 0.0
2017-Oct-18 04:00N 34°09' W 119°12'0 0.0
2017-Oct-18 03:27N 34°09' W 119°12'4 8.9
2017-Oct-18 02:58N 34°09' W 119°17'713.8
2017-Oct-18 02:30N 34°11' W 119°25'612.1
2017-Oct-18 02:00N 34°09' W 119°18'5 9.3
2017-Oct-18 01:29N 34°09' W 119°12'0 0.0
2017-Oct-18 01:00N 34°09' W 119°12'0 0.0
2017-Oct-18 00:29N 34°09' W 119°12'0 0.0
2017-Oct-18 00:00N 34°09' W 119°12'0 0.0
2017-Oct-17 23:28N 34°09' W 119°12'3 6.5
2017-Oct-17 23:00N 34°08' W 119°15'814.9
2017-Oct-17 22:30N 34°10' W 119°24'1 2.6
2017-Oct-17 22:00N 34°11' W 119°25'0 1.0
2017-Oct-17 21:30N 34°11' W 119°25'814.9
2017-Oct-17 21:00N 34°09' W 119°16'3 5.5
2017-Oct-17 20:30N 34°09' W 119°12'4 7.3
2017-Oct-17 20:00N 34°08' W 119°17'814.6
2017-Oct-17 19:28N 34°11' W 119°25'1 1.2
2017-Oct-17 19:00N 34°11' W 119°26'916.8
2017-Oct-17 18:30N 34°19' W 119°30'4 7.8
2017-Oct-17 17:58N 34°23' W 119°30'0 0.0
2017-Oct-17 17:30N 34°23' W 119°30'714.3
2017-Oct-17 17:00N 34°16' W 119°29'612.0
2017-Oct-17 16:30N 34°11' W 119°25'814.0
2017-Oct-17 15:58N 34°12' W 119°16'4 8.9
2017-Oct-17 15:30N 34°08' W 119°14'3 6.0
2017-Oct-17 15:00N 34°09' W 119°17'713.4
2017-Oct-17 14:30N 34°11' W 119°25'815.9
2017-Oct-17 14:00N 34°07' W 119°16'4 6.2
2017-Oct-17 13:23N 34°09' W 119°12'0 0.0
2017-Oct-17 12:59N 34°09' W 119°12'0 0.0
2017-Oct-17 12:30N 34°09' W 119°12'0 0.0
2017-Oct-17 12:00N 34°09' W 119°12'0 0.0
2017-Oct-17 11:24N 34°09' W 119°12'0 0.0
2017-Oct-17 11:00N 34°09' W 119°12'0 0.0
2017-Oct-17 10:29N 34°09' W 119°12'0 0.0
2017-Oct-17 10:00N 34°09' W 119°12'0 0.0
2017-Oct-17 09:26N 34°09' W 119°12'0 0.0
2017-Oct-17 08:59N 34°09' W 119°12'0 0.0
2017-Oct-17 08:27N 34°09' W 119°12'0 0.0
2017-Oct-17 08:00N 34°09' W 119°12'0 0.0
2017-Oct-17 07:28N 34°09' W 119°12'0 0.0
2017-Oct-17 07:00N 34°09' W 119°12'0 0.0
2017-Oct-17 06:30N 34°09' W 119°12'0 0.0
2017-Oct-17 05:56N 34°09' W 119°12'0 0.0
2017-Oct-17 05:28N 34°09' W 119°12'0 0.0
2017-Oct-17 05:00N 34°09' W 119°12'0 0.0
2017-Oct-17 04:29N 34°09' W 119°12'0 0.0
2017-Oct-17 03:55N 34°09' W 119°12'0 0.0
2017-Oct-17 03:13N 34°09' W 119°12'0 0.0
2017-Oct-17 02:58N 34°09' W 119°12'0 0.0
2017-Oct-17 02:29N 34°09' W 119°12'0 0.0
2017-Oct-17 01:52N 34°09' W 119°12'0 0.0
2017-Oct-17 01:30N 34°09' W 119°12'0 0.0
2017-Oct-17 00:59N 34°09' W 119°12'0 0.0
2017-Oct-17 00:29N 34°09' W 119°12'0 0.0
2017-Oct-16 23:58N 34°09' W 119°12'0 0.0
2017-Oct-16 23:28N 34°09' W 119°12'3 5.8
2017-Oct-16 22:56N 34°09' W 119°16'716.8
2017-Oct-16 22:30N 34°11' W 119°24'4 8.2
2017-Oct-16 22:00N 34°10' W 119°20'611.7
2017-Oct-16 21:30N 34°09' W 119°12'4 7.2
2017-Oct-16 20:57N 34°07' W 119°17'0 0.0
2017-Oct-16 20:27N 34°07' W 119°17'4 8.9
2017-Oct-16 20:00N 34°09' W 119°12'712.7
2017-Oct-16 19:28N 34°09' W 119°20'4 9.6
2017-Oct-16 19:00N 34°11' W 119°25'0 0.2
2017-Oct-16 18:30N 34°11' W 119°25'5 9.5
2017-Oct-16 18:00N 34°10' W 119°20'612.0
2017-Oct-16 17:29N 34°09' W 119°12'0 0.2
2017-Oct-16 16:59N 34°09' W 119°12'2 3.4
2017-Oct-16 16:30N 34°09' W 119°14'916.2
2017-Oct-16 15:57N 34°11' W 119°25'1 1.0
2017-Oct-16 15:27N 34°11' W 119°25'0 0.2
2017-Oct-16 15:00N 34°11' W 119°25'1110.7
2017-Oct-16 13:58N 34°09' W 119°12'0 0.0
2017-Oct-16 13:30N 34°09' W 119°12'0 0.0
2017-Oct-16 13:00N 34°09' W 119°12'0 0.0
2017-Oct-16 12:30N 34°09' W 119°12'0 0.0
2017-Oct-16 11:58N 34°09' W 119°12'0 0.0
2017-Oct-16 11:24N 34°09' W 119°12'0 0.0
2017-Oct-16 10:59N 34°09' W 119°12'0 0.0
2017-Oct-16 10:30N 34°09' W 119°12'0 0.0
2017-Oct-16 09:59N 34°09' W 119°12'0 0.0
2017-Oct-16 09:29N 34°09' W 119°12'0 0.0
2017-Oct-16 08:52N 34°09' W 119°12'0 0.0
2017-Oct-16 08:30N 34°09' W 119°12'0 0.0
2017-Oct-16 07:58N 34°09' W 119°12'0 0.0
2017-Oct-16 07:30N 34°09' W 119°12'0 0.0
2017-Oct-16 06:59N 34°09' W 119°12'0 0.0
2017-Oct-16 06:27N 34°09' W 119°12'0 0.0
2017-Oct-16 05:59N 34°09' W 119°12'0 0.0
2017-Oct-16 05:29N 34°09' W 119°12'0 0.0
2017-Oct-16 04:59N 34°09' W 119°12'0 0.0
2017-Oct-16 04:29N 34°09' W 119°12'0 0.0
2017-Oct-16 04:00N 34°09' W 119°12'3 6.3
2017-Oct-16 03:30N 34°09' W 119°16'815.9
2017-Oct-16 03:00N 34°11' W 119°25'3 6.2
2017-Oct-16 02:30N 34°10' W 119°21'811.1
2017-Oct-16 01:48N 34°09' W 119°12'0 0.0
2017-Oct-16 01:29N 34°09' W 119°12'0 0.0
2017-Oct-16 01:00N 34°09' W 119°12'0 0.0
2017-Oct-16 00:27N 34°09' W 119°12'512.4
2017-Oct-16 00:00N 34°10' W 119°19'611.0
2017-Oct-15 23:30N 34°11' W 119°25'510.6
2017-Oct-15 23:00N 34°08' W 119°19'611.8
2017-Oct-15 22:30N 34°09' W 119°12'2 5.0
2017-Oct-15 22:00N 34°09' W 119°15'816.6
2017-Oct-15 21:30N 34°11' W 119°25'0 0.4
2017-Oct-15 20:59N 34°11' W 119°25'4 8.5
2017-Oct-15 20:28N 34°10' W 119°20'613.4
2017-Oct-15 20:00N 34°09' W 119°12'3 5.8
2017-Oct-15 19:30N 34°09' W 119°16'816.2
2017-Oct-15 19:00N 34°11' W 119°25'1 1.4
2017-Oct-15 18:29N 34°11' W 119°26'0 0.5
2017-Oct-15 18:00N 34°11' W 119°26'0 0.7
2017-Oct-15 17:28N 34°11' W 119°25'3 5.3
2017-Oct-15 17:00N 34°10' W 119°22'815.7
2017-Oct-15 16:28N 34°09' W 119°13'1 2.1
2017-Oct-15 15:58N 34°08' W 119°14'3 6.4
2017-Oct-15 15:30N 34°11' W 119°16'613.0
2017-Oct-15 15:00N 34°11' W 119°23'8 7.4
2017-Oct-15 13:57N 34°09' W 119°14'2 4.2
2017-Oct-15 13:29N 34°09' W 119°12'0 0.0
2017-Oct-15 12:59N 34°09' W 119°12'0 0.0
2017-Oct-15 12:30N 34°09' W 119°12'0 0.0
2017-Oct-15 12:00N 34°09' W 119°12'0 0.0
2017-Oct-15 11:30N 34°09' W 119°12'0 0.0
2017-Oct-15 10:59N 34°09' W 119°12'0 0.0
2017-Oct-15 10:30N 34°09' W 119°12'0 0.0
2017-Oct-15 10:00N 34°09' W 119°12'0 0.0
2017-Oct-15 09:30N 34°09' W 119°12'0 0.0
2017-Oct-15 09:00N 34°09' W 119°12'0 0.0
2017-Oct-15 08:30N 34°09' W 119°12'0 0.0
2017-Oct-15 08:00N 34°09' W 119°12'0 0.0
2017-Oct-15 07:30N 34°09' W 119°12'0 0.0
2017-Oct-15 07:00N 34°09' W 119°12'0 0.0
2017-Oct-15 06:29N 34°09' W 119°12'0 0.0
2017-Oct-15 06:00N 34°09' W 119°12'0 0.0
2017-Oct-15 05:28N 34°09' W 119°12'0 0.0
2017-Oct-15 05:00N 34°09' W 119°12'0 0.0
2017-Oct-15 04:30N 34°09' W 119°12'0 0.0
2017-Oct-15 04:00N 34°09' W 119°12'0 0.0
2017-Oct-15 03:30N 34°09' W 119°12'0 0.0
2017-Oct-15 03:00N 34°09' W 119°12'0 0.0
2017-Oct-15 02:29N 34°09' W 119°12'0 0.0
2017-Oct-15 02:00N 34°09' W 119°12'0 0.0
2017-Oct-15 01:30N 34°09' W 119°12'0 0.0
2017-Oct-15 01:00N 34°09' W 119°12'0 0.0
2017-Oct-15 00:30N 34°09' W 119°12'0 0.0
2017-Oct-15 00:00N 34°09' W 119°12'0 0.0
2017-Oct-14 23:29N 34°09' W 119°12'0 0.0
2017-Oct-14 22:59N 34°09' W 119°12'4 8.5
2017-Oct-14 22:30N 34°07' W 119°17'0 0.0
2017-Oct-14 22:00N 34°07' W 119°17'0 0.0
2017-Oct-14 21:30N 34°07' W 119°17'0 0.0
2017-Oct-14 21:00N 34°07' W 119°17'0 0.0
2017-Oct-14 20:29N 34°07' W 119°17'0 0.0
2017-Oct-14 19:58N 34°07' W 119°17'0 0.0
2017-Oct-14 19:30N 34°07' W 119°17'0 0.0
2017-Oct-14 19:00N 34°07' W 119°17'0 0.0
2017-Oct-14 18:30N 34°07' W 119°17'0 0.0
2017-Oct-14 18:00N 34°07' W 119°17'0 0.0
2017-Oct-14 17:30N 34°07' W 119°17'0 0.2
2017-Oct-14 17:00N 34°07' W 119°17'0 0.2
2017-Oct-14 16:25N 34°07' W 119°17'410.0
2017-Oct-14 16:00N 34°09' W 119°21'4 7.8
2017-Oct-14 15:30N 34°11' W 119°25'0 0.2
2017-Oct-14 15:00N 34°11' W 119°25'1 1.9
2017-Oct-14 14:30N 34°11' W 119°24'815.2
2017-Oct-14 14:00N 34°09' W 119°15'3 5.2
2017-Oct-14 13:31N 34°09' W 119°12'0 0.0
2017-Oct-14 13:00N 34°09' W 119°12'0 0.0
2017-Oct-14 12:30N 34°09' W 119°12'0 0.0
2017-Oct-14 12:00N 34°09' W 119°12'0 0.0
2017-Oct-14 11:30N 34°09' W 119°12'0 0.0
2017-Oct-14 11:00N 34°09' W 119°12'0 0.0
2017-Oct-14 10:30N 34°09' W 119°12'0 0.0
2017-Oct-14 10:00N 34°09' W 119°12'0 0.0
2017-Oct-14 09:27N 34°09' W 119°12'0 0.0
2017-Oct-14 09:00N 34°09' W 119°12'0 0.0
2017-Oct-14 08:30N 34°09' W 119°12'0 0.0
2017-Oct-14 08:00N 34°09' W 119°12'0 0.0
2017-Oct-14 07:30N 34°09' W 119°12'0 0.0
2017-Oct-14 07:00N 34°09' W 119°12'0 0.0
2017-Oct-14 06:30N 34°09' W 119°12'0 0.0
2017-Oct-14 05:59N 34°09' W 119°12'0 0.1
2017-Oct-14 05:23N 34°09' W 119°12'0 0.4
2017-Oct-14 05:00N 34°09' W 119°12'0 0.0
2017-Oct-14 04:30N 34°09' W 119°12'0 0.0
2017-Oct-14 03:59N 34°09' W 119°12'0 0.0
2017-Oct-14 03:30N 34°09' W 119°12'0 0.1
2017-Oct-14 03:00N 34°09' W 119°12'713.6
2017-Oct-14 02:30N 34°10' W 119°20'2 3.8
2017-Oct-14 02:00N 34°10' W 119°23'815.1
2017-Oct-14 01:30N 34°09' W 119°14'1 2.9
2017-Oct-14 01:00N 34°09' W 119°12'0 0.0
2017-Oct-14 00:30N 34°09' W 119°12'0 0.0
2017-Oct-14 00:00N 34°09' W 119°12'0 0.0
2017-Oct-13 23:30N 34°09' W 119°12'3 6.7
2017-Oct-13 23:00N 34°07' W 119°16'713.5
2017-Oct-13 22:30N 34°10' W 119°23'3 5.0
2017-Oct-13 22:00N 34°12' W 119°25'816.1
2017-Oct-13 21:29N 34°20' W 119°29'4 7.7
2017-Oct-13 21:00N 34°23' W 119°30'510.2
2017-Oct-13 20:31N 34°18' W 119°29'816.2
2017-Oct-13 20:00N 34°13' W 119°22'915.9
2017-Oct-13 19:28N 34°09' W 119°13'4 9.4
2017-Oct-13 19:00N 34°09' W 119°18'612.3
2017-Oct-13 18:30N 34°11' W 119°25'0 0.1
2017-Oct-13 18:00N 34°11' W 119°25'0 0.1
2017-Oct-13 17:30N 34°11' W 119°25'815.9
2017-Oct-13 17:00N 34°09' W 119°16'2 3.3
2017-Oct-13 16:30N 34°07' W 119°16'3 6.2
2017-Oct-13 16:00N 34°09' W 119°12'0 0.0
2017-Oct-13 15:29N 34°09' W 119°12'4 7.4
2017-Oct-13 15:00N 34°09' W 119°17'713.1
2017-Oct-13 14:29N 34°11' W 119°25'816.0
2017-Oct-13 14:00N 34°07' W 119°16'4 7.6
2017-Oct-13 13:30N 34°09' W 119°12'0 0.0
2017-Oct-13 13:00N 34°09' W 119°12'0 0.0
2017-Oct-13 12:30N 34°09' W 119°12'0 0.0
2017-Oct-13 12:00N 34°09' W 119°12'0 0.0
2017-Oct-13 11:29N 34°09' W 119°12'0 0.0
2017-Oct-13 11:00N 34°09' W 119°12'0 0.0
2017-Oct-13 10:30N 34°09' W 119°12'0 0.0
2017-Oct-13 10:00N 34°09' W 119°12'0 0.0
2017-Oct-13 09:30N 34°09' W 119°12'0 0.0
2017-Oct-13 08:58N 34°09' W 119°12'0 0.0
2017-Oct-13 08:30N 34°09' W 119°12'0 0.0
2017-Oct-13 08:00N 34°09' W 119°12'0 0.0
2017-Oct-13 07:30N 34°09' W 119°12'0 0.0
2017-Oct-13 07:00N 34°09' W 119°12'0 0.0
2017-Oct-13 06:29N 34°09' W 119°12'0 0.0
2017-Oct-13 06:00N 34°09' W 119°12'0 0.0
2017-Oct-13 05:30N 34°09' W 119°12'0 0.0
2017-Oct-13 04:56N 34°09' W 119°12'0 0.0
2017-Oct-13 04:30N 34°09' W 119°12'0 0.0
2017-Oct-13 04:00N 34°09' W 119°12'0 0.0
2017-Oct-13 03:30N 34°09' W 119°12'0 0.0
2017-Oct-13 03:00N 34°09' W 119°12'610.7
2017-Oct-13 02:29N 34°09' W 119°19'4 9.3
2017-Oct-13 02:00N 34°11' W 119°24'815.7
2017-Oct-13 01:29N 34°09' W 119°14'2 3.2
2017-Oct-13 00:54N 34°09' W 119°12'  
Track history (hours):
 
Tides and Currents Weather Stations Pressure Air Temp Water Temp Dewpoint Dewpoint Depression Visibility Wind Speed Wind Dir Waves Ship Positions

Capt. T Le

Owner: SO CAL SHIP SERVICES, INC, TERMINAL ISLAND, CA. More information available from US FCC via Universal Licensing System and Coast Guard Vessel Documentation Center.

Last reported at 2017-Oct-23 00:30 UTC. Time now 2017-Oct-23 00:34 UTC.
Position N 34°09' W 119°12'.

Length 38 m; draft 2 m.

Type: Ship (hazmat cat B). MMSI: 367104030.

Date/timePositionNaut miles runAvg speedWind from/ knotsBaromVisibWave heightAir tempDewpointWater temp
2017-Oct-23 00:30N 34°09' W 119°12'2 3.6
2017-Oct-22 23:59N 34°09' W 119°14'714.4
2017-Oct-22 23:29N 34°11' W 119°22'2 3.4
2017-Oct-22 23:00N 34°10' W 119°24'714.2
2017-Oct-22 22:30N 34°07' W 119°16'3 5.2
2017-Oct-22 21:50N 34°09' W 119°12'0 0.0
2017-Oct-22 21:29N 34°09' W 119°12'0 0.0
2017-Oct-22 20:58N 34°09' W 119°12'0 0.0
2017-Oct-22 20:29N 34°09' W 119°12'0 0.0
2017-Oct-22 20:00N 34°09' W 119°12'0 0.0
2017-Oct-22 19:24N 34°09' W 119°12'0 0.0
2017-Oct-22 18:57N 34°09' W 119°12'0 0.0
2017-Oct-22 18:21N 34°09' W 119°12'0 0.0
2017-Oct-22 18:00N 34°09' W 119°12'0 0.0
2017-Oct-22 17:30N 34°09' W 119°12'0 0.0
2017-Oct-22 16:59N 34°09' W 119°12'0 0.2
2017-Oct-22 16:26N 34°09' W 119°12'3 6.4
2017-Oct-22 16:00N 34°08' W 119°15'5 9.6
2017-Oct-22 15:30N 34°12' W 119°17'612.5
2017-Oct-22 14:59N 34°11' W 119°25'4 7.9
2017-Oct-22 14:29N 34°10' W 119°21'713.8
2017-Oct-22 13:59N 34°09' W 119°12'0 0.0
2017-Oct-22 13:30N 34°09' W 119°12'0 0.0
2017-Oct-22 12:57N 34°09' W 119°12'0 0.0
2017-Oct-22 12:20N 34°09' W 119°12'0 0.0
2017-Oct-22 11:57N 34°09' W 119°12'0 0.0
2017-Oct-22 11:21N 34°09' W 119°12'0 0.0
2017-Oct-22 10:57N 34°09' W 119°12'0 0.0
2017-Oct-22 10:30N 34°09' W 119°12'0 0.0
2017-Oct-22 10:00N 34°09' W 119°12'0 0.0
2017-Oct-22 09:30N 34°09' W 119°12'0 0.0
2017-Oct-22 09:00N 34°09' W 119°12'0 0.0
2017-Oct-22 08:21N 34°09' W 119°12'0 0.0
2017-Oct-22 07:59N 34°09' W 119°12'0 0.0
2017-Oct-22 07:29N 34°09' W 119°12'0 0.0
2017-Oct-22 06:57N 34°09' W 119°12'0 0.0
2017-Oct-22 06:29N 34°09' W 119°12'0 0.0
2017-Oct-22 06:00N 34°09' W 119°12'0 0.0
2017-Oct-22 05:30N 34°09' W 119°12'0 0.0
2017-Oct-22 05:00N 34°09' W 119°12'0 0.0
2017-Oct-22 04:28N 34°09' W 119°12'0 0.0
2017-Oct-22 03:55N 34°09' W 119°12'0 0.0
2017-Oct-22 03:24N 34°09' W 119°12'0 0.0
2017-Oct-22 02:48N 34°09' W 119°12'0 0.0
2017-Oct-22 02:28N 34°09' W 119°12'0 0.0
2017-Oct-22 02:00N 34°09' W 119°12'0 0.0
2017-Oct-22 01:30N 34°09' W 119°12'0 0.0
2017-Oct-22 00:52N 34°09' W 119°12'0 0.0
2017-Oct-22 00:29N 34°09' W 119°12'0 0.0
2017-Oct-22 00:00N 34°09' W 119°12'0 0.0
2017-Oct-21 23:30N 34°09' W 119°12'0 0.0
2017-Oct-21 23:00N 34°09' W 119°12'0 0.0
2017-Oct-21 22:29N 34°09' W 119°12'0 0.0
2017-Oct-21 21:55N 34°09' W 119°12'0 0.0
2017-Oct-21 21:26N 34°09' W 119°12'0 0.0
2017-Oct-21 20:58N 34°09' W 119°12'0 0.0
2017-Oct-21 20:16N 34°09' W 119°12'0 0.0
2017-Oct-21 19:59N 34°09' W 119°12'0 0.6
2017-Oct-21 19:30N 34°09' W 119°12'611.7
2017-Oct-21 19:00N 34°10' W 119°19'611.8
2017-Oct-21 18:28N 34°12' W 119°26'715.5
2017-Oct-21 18:00N 34°19' W 119°30'4 7.2
2017-Oct-21 17:27N 34°23' W 119°30'4 9.5
2017-Oct-21 16:58N 34°19' W 119°29'816.7
2017-Oct-21 16:30N 34°12' W 119°25'4 7.7
2017-Oct-21 16:00N 34°10' W 119°21'714.2
2017-Oct-21 15:30N 34°09' W 119°12'4 7.2
2017-Oct-21 15:00N 34°10' W 119°17'1 0.6
2017-Oct-21 13:59N 34°09' W 119°16'4 7.1
2017-Oct-21 13:29N 34°09' W 119°12'0 0.0
2017-Oct-21 12:57N 34°09' W 119°12'0 0.0
2017-Oct-21 12:28N 34°09' W 119°12'0 0.0
2017-Oct-21 12:00N 34°09' W 119°12'0 0.0
2017-Oct-21 11:26N 34°09' W 119°12'0 0.0
2017-Oct-21 10:59N 34°09' W 119°12'0 0.0
2017-Oct-21 10:30N 34°09' W 119°12'0 0.0
2017-Oct-21 09:59N 34°09' W 119°12'0 0.0
2017-Oct-21 09:27N 34°09' W 119°12'0 0.0
2017-Oct-21 09:00N 34°09' W 119°12'0 0.0
2017-Oct-21 08:26N 34°09' W 119°12'0 0.0
2017-Oct-21 07:54N 34°09' W 119°12'0 0.0
2017-Oct-21 07:29N 34°09' W 119°12'0 0.0
2017-Oct-21 06:53N 34°09' W 119°12'0 0.0
2017-Oct-21 06:27N 34°09' W 119°12'0 0.0
2017-Oct-21 05:58N 34°09' W 119°12'0 0.0
2017-Oct-21 05:30N 34°09' W 119°12'0 0.0
2017-Oct-21 05:00N 34°09' W 119°12'0 0.0
2017-Oct-21 04:25N 34°09' W 119°12'0 0.0
2017-Oct-21 03:45N 34°09' W 119°12'0 0.0
2017-Oct-21 03:24N 34°09' W 119°12'0 0.0
2017-Oct-21 02:15N 34°09' W 119°12'0 0.0
2017-Oct-21 01:57N 34°09' W 119°12'0 0.0
2017-Oct-21 01:26N 34°09' W 119°12'0 0.0
2017-Oct-21 01:00N 34°09' W 119°12'0 0.0
2017-Oct-21 00:28N 34°09' W 119°12'0 0.0
2017-Oct-20 23:40N 34°09' W 119°12'0 0.0
2017-Oct-20 23:29N 34°09' W 119°12'0 0.0
2017-Oct-20 23:00N 34°09' W 119°12'0 0.0
2017-Oct-20 22:25N 34°09' W 119°12'0 0.0
2017-Oct-20 22:00N 34°09' W 119°12'0 0.0
2017-Oct-20 21:28N 34°09' W 119°12'0 0.0
2017-Oct-20 20:54N 34°09' W 119°12'0 0.0
2017-Oct-20 20:26N 34°09' W 119°12'0 0.1
2017-Oct-20 19:59N 34°09' W 119°12'0 0.0
2017-Oct-20 15:42N 34°09' W 119°12'0 0.0
2017-Oct-20 15:28N 34°09' W 119°12'0 0.0
2017-Oct-20 15:00N 34°09' W 119°12'0 0.0
2017-Oct-20 14:29N 34°09' W 119°12'0 0.0
2017-Oct-20 13:21N 34°09' W 119°12'0 0.0
2017-Oct-20 12:58N 34°09' W 119°12'0 0.0
2017-Oct-20 12:12N 34°09' W 119°12'0 0.0
2017-Oct-20 11:55N 34°09' W 119°12'0 0.0
2017-Oct-20 11:30N 34°09' W 119°12'0 0.0
2017-Oct-20 10:51N 34°09' W 119°12'0 0.0
2017-Oct-20 10:29N 34°09' W 119°12'0 0.0
2017-Oct-20 09:59N 34°09' W 119°12'0 0.0
2017-Oct-20 09:29N 34°09' W 119°12'0 0.0
2017-Oct-20 08:54N 34°09' W 119°12'0 0.0
2017-Oct-20 08:26N 34°09' W 119°12'0 0.0
2017-Oct-20 07:43N 34°09' W 119°12'0 0.0
2017-Oct-20 07:30N 34°09' W 119°12'0 0.0
2017-Oct-20 07:00N 34°09' W 119°12'0 0.0
2017-Oct-20 06:18N 34°09' W 119°12'0 0.0
2017-Oct-20 06:00N 34°09' W 119°12'0 0.0
2017-Oct-20 05:27N 34°09' W 119°12'0 0.0
2017-Oct-20 04:59N 34°09' W 119°12'0 0.0
2017-Oct-20 04:28N 34°09' W 119°12'0 0.0
2017-Oct-20 03:58N 34°09' W 119°12'0 0.0
2017-Oct-20 03:11N 34°09' W 119°12'0 0.0
2017-Oct-20 02:56N 34°09' W 119°12'4 9.8
2017-Oct-20 02:30N 34°09' W 119°17'612.5
2017-Oct-20 02:00N 34°11' W 119°25'815.0
2017-Oct-20 01:29N 34°09' W 119°15'3 3.3
2017-Oct-20 00:39N 34°09' W 119°12'0 0.0
2017-Oct-20 00:17N 34°09' W 119°12'311.5
2017-Oct-20 00:00N 34°07' W 119°16'3 6.6
2017-Oct-19 23:30N 34°09' W 119°12'4 8.0
2017-Oct-19 23:00N 34°09' W 119°17'713.6
2017-Oct-19 22:29N 34°11' W 119°25'0 0.2
2017-Oct-19 21:56N 34°11' W 119°25'0 0.1
2017-Oct-19 21:29N 34°11' W 119°25'715.0
2017-Oct-19 21:00N 34°07' W 119°17'5 9.5
2017-Oct-19 20:30N 34°10' W 119°23'3 5.7
2017-Oct-19 20:00N 34°11' W 119°25'815.3
2017-Oct-19 19:28N 34°19' W 119°30'4 9.7
2017-Oct-19 19:00N 34°23' W 119°30'0 0.0
2017-Oct-19 18:30N 34°23' W 119°30'713.4
2017-Oct-19 18:00N 34°16' W 119°29'612.8
2017-Oct-19 17:30N 34°11' W 119°25'0 0.1
2017-Oct-19 16:57N 34°11' W 119°25'3 5.5
2017-Oct-19 16:29N 34°10' W 119°22'816.3
2017-Oct-19 16:00N 34°09' W 119°13'1 1.4
2017-Oct-19 15:30N 34°09' W 119°12'510.7
2017-Oct-19 15:00N 34°10' W 119°19'611.3
2017-Oct-19 14:30N 34°11' W 119°25'815.3
2017-Oct-19 14:00N 34°09' W 119°16'3 6.4
2017-Oct-19 13:29N 34°09' W 119°12'0 0.0
2017-Oct-19 13:00N 34°09' W 119°12'1 1.4
2017-Oct-19 12:31N 34°09' W 119°13'0 0.9
2017-Oct-19 12:01N 34°09' W 119°12'0 0.6
2017-Oct-19 11:29N 34°09' W 119°12'0 0.0
2017-Oct-19 11:00N 34°09' W 119°12'0 0.0
2017-Oct-19 10:30N 34°09' W 119°12'0 0.0
2017-Oct-19 10:00N 34°09' W 119°12'0 0.0
2017-Oct-19 09:31N 34°09' W 119°12'0 0.0
2017-Oct-19 08:58N 34°09' W 119°12'0 0.0
2017-Oct-19 08:29N 34°09' W 119°12'0 0.0
2017-Oct-19 07:58N 34°09' W 119°12'0 0.0
2017-Oct-19 07:30N 34°09' W 119°12'0 0.0
2017-Oct-19 07:00N 34°09' W 119°12'0 0.0
2017-Oct-19 06:29N 34°09' W 119°12'0 0.0
2017-Oct-19 06:01N 34°09' W 119°12'0 0.0
2017-Oct-19 05:31N 34°09' W 119°12'0 0.0
2017-Oct-19 04:59N 34°09' W 119°12'0 0.0
2017-Oct-19 04:29N 34°09' W 119°12'0 0.0
2017-Oct-19 03:59N 34°09' W 119°12'0 0.0
2017-Oct-19 03:27N 34°09' W 119°12'0 0.0
2017-Oct-19 03:01N 34°09' W 119°12'1 1.0
2017-Oct-19 02:30N 34°09' W 119°13'817.1
2017-Oct-19 02:00N 34°10' W 119°23'0 0.3
2017-Oct-19 01:30N 34°10' W 119°22'815.5
2017-Oct-19 01:00N 34°09' W 119°13'1 2.0
2017-Oct-19 00:30N 34°09' W 119°12'4 8.4
2017-Oct-19 00:00N 34°07' W 119°17'4 8.1
2017-Oct-18 23:30N 34°09' W 119°12'5 8.8
2017-Oct-18 22:59N 34°07' W 119°17'715.6
2017-Oct-18 22:30N 34°11' W 119°25'713.8
2017-Oct-18 22:00N 34°09' W 119°17'4 8.1
2017-Oct-18 21:30N 34°09' W 119°12'0 0.0
2017-Oct-18 21:00N 34°09' W 119°12'0 0.0
2017-Oct-18 20:30N 34°09' W 119°12'5 9.4
2017-Oct-18 20:00N 34°07' W 119°17'714.5
2017-Oct-18 19:30N 34°11' W 119°25'510.0
2017-Oct-18 19:01N 34°10' W 119°19'611.3
2017-Oct-18 18:28N 34°09' W 119°12'0 0.0
2017-Oct-18 17:59N 34°09' W 119°12'0 0.0
2017-Oct-18 17:30N 34°09' W 119°12'0 0.0
2017-Oct-18 16:57N 34°09' W 119°12'0 0.0
2017-Oct-18 16:26N 34°09' W 119°12'0 0.7
2017-Oct-18 16:00N 34°09' W 119°12'4 7.6
2017-Oct-18 15:29N 34°07' W 119°17'713.4
2017-Oct-18 15:00N 34°10' W 119°24'8 8.1
2017-Oct-18 14:00N 34°08' W 119°14'2 3.9
2017-Oct-18 13:28N 34°09' W 119°12'0 0.0
2017-Oct-18 12:59N 34°09' W 119°12'0 0.0
2017-Oct-18 12:28N 34°09' W 119°12'0 0.0
2017-Oct-18 11:58N 34°09' W 119°12'0 0.0
2017-Oct-18 11:29N 34°09' W 119°12'0 0.0
2017-Oct-18 11:00N 34°09' W 119°12'0 0.0
2017-Oct-18 10:30N 34°09' W 119°12'0 0.0
2017-Oct-18 09:59N 34°09' W 119°12'0 0.0
2017-Oct-18 09:30N 34°09' W 119°12'0 0.0
2017-Oct-18 09:00N 34°09' W 119°12'0 0.0
2017-Oct-18 08:28N 34°09' W 119°12'0 0.0
2017-Oct-18 07:59N 34°09' W 119°12'0 0.0
2017-Oct-18 07:23N 34°09' W 119°12'0 0.0
2017-Oct-18 06:46N 34°09' W 119°12'0 0.0
2017-Oct-18 06:30N 34°09' W 119°12'0 0.0
2017-Oct-18 06:00N 34°09' W 119°12'0 0.0
2017-Oct-18 05:30N 34°09' W 119°12'0 0.0
2017-Oct-18 04:51N 34°09' W 119°12'0 0.0
2017-Oct-18 04:20N 34°09' W 119°12'0 0.0
2017-Oct-18 04:00N 34°09' W 119°12'0 0.0
2017-Oct-18 03:27N 34°09' W 119°12'4 8.9
2017-Oct-18 02:58N 34°09' W 119°17'713.8
2017-Oct-18 02:30N 34°11' W 119°25'612.1
2017-Oct-18 02:00N 34°09' W 119°18'5 9.3
2017-Oct-18 01:29N 34°09' W 119°12'0 0.0
2017-Oct-18 01:00N 34°09' W 119°12'0 0.0
2017-Oct-18 00:29N 34°09' W 119°12'0 0.0
2017-Oct-18 00:00N 34°09' W 119°12'0 0.0
2017-Oct-17 23:28N 34°09' W 119°12'3 6.5
2017-Oct-17 23:00N 34°08' W 119°15'814.9
2017-Oct-17 22:30N 34°10' W 119°24'1 2.6
2017-Oct-17 22:00N 34°11' W 119°25'0 1.0
2017-Oct-17 21:30N 34°11' W 119°25'814.9
2017-Oct-17 21:00N 34°09' W 119°16'3 5.5
2017-Oct-17 20:30N 34°09' W 119°12'4 7.3
2017-Oct-17 20:00N 34°08' W 119°17'814.6
2017-Oct-17 19:28N 34°11' W 119°25'1 1.2
2017-Oct-17 19:00N 34°11' W 119°26'916.8
2017-Oct-17 18:30N 34°19' W 119°30'4 7.8
2017-Oct-17 17:58N 34°23' W 119°30'0 0.0
2017-Oct-17 17:30N 34°23' W 119°30'714.3
2017-Oct-17 17:00N 34°16' W 119°29'612.0
2017-Oct-17 16:30N 34°11' W 119°25'814.0
2017-Oct-17 15:58N 34°12' W 119°16'4 8.9
2017-Oct-17 15:30N 34°08' W 119°14'3 6.0
2017-Oct-17 15:00N 34°09' W 119°17'713.4
2017-Oct-17 14:30N 34°11' W 119°25'815.9
2017-Oct-17 14:00N 34°07' W 119°16'4 6.2
2017-Oct-17 13:23N 34°09' W 119°12'0 0.0
2017-Oct-17 12:59N 34°09' W 119°12'0 0.0
2017-Oct-17 12:30N 34°09' W 119°12'0 0.0
2017-Oct-17 12:00N 34°09' W 119°12'0 0.0
2017-Oct-17 11:24N 34°09' W 119°12'0 0.0
2017-Oct-17 11:00N 34°09' W 119°12'0 0.0
2017-Oct-17 10:29N 34°09' W 119°12'0 0.0
2017-Oct-17 10:00N 34°09' W 119°12'0 0.0
2017-Oct-17 09:26N 34°09' W 119°12'0 0.0
2017-Oct-17 08:59N 34°09' W 119°12'0 0.0
2017-Oct-17 08:27N 34°09' W 119°12'0 0.0
2017-Oct-17 08:00N 34°09' W 119°12'0 0.0
2017-Oct-17 07:28N 34°09' W 119°12'0 0.0
2017-Oct-17 07:00N 34°09' W 119°12'0 0.0
2017-Oct-17 06:30N 34°09' W 119°12'0 0.0
2017-Oct-17 05:56N 34°09' W 119°12'0 0.0
2017-Oct-17 05:28N 34°09' W 119°12'0 0.0
2017-Oct-17 05:00N 34°09' W 119°12'0 0.0
2017-Oct-17 04:29N 34°09' W 119°12'0 0.0
2017-Oct-17 03:55N 34°09' W 119°12'0 0.0
2017-Oct-17 03:13N 34°09' W 119°12'0 0.0
2017-Oct-17 02:58N 34°09' W 119°12'0 0.0
2017-Oct-17 02:29N 34°09' W 119°12'0 0.0
2017-Oct-17 01:52N 34°09' W 119°12'0 0.0
2017-Oct-17 01:30N 34°09' W 119°12'0 0.0
2017-Oct-17 00:59N 34°09' W 119°12'0 0.0
2017-Oct-17 00:29N 34°09' W 119°12'0 0.0
2017-Oct-16 23:58N 34°09' W 119°12'0 0.0
2017-Oct-16 23:28N 34°09' W 119°12'3 5.8
2017-Oct-16 22:56N 34°09' W 119°16'716.8
2017-Oct-16 22:30N 34°11' W 119°24'4 8.2
2017-Oct-16 22:00N 34°10' W 119°20'611.7
2017-Oct-16 21:30N 34°09' W 119°12'4 7.2
2017-Oct-16 20:57N 34°07' W 119°17'0 0.0
2017-Oct-16 20:27N 34°07' W 119°17'4 8.9
2017-Oct-16 20:00N 34°09' W 119°12'712.7
2017-Oct-16 19:28N 34°09' W 119°20'4 9.6
2017-Oct-16 19:00N 34°11' W 119°25'0 0.2
2017-Oct-16 18:30N 34°11' W 119°25'5 9.5
2017-Oct-16 18:00N 34°10' W 119°20'612.0
2017-Oct-16 17:29N 34°09' W 119°12'0 0.2
2017-Oct-16 16:59N 34°09' W 119°12'2 3.4
2017-Oct-16 16:30N 34°09' W 119°14'916.2
2017-Oct-16 15:57N 34°11' W 119°25'1 1.0
2017-Oct-16 15:27N 34°11' W 119°25'0 0.2
2017-Oct-16 15:00N 34°11' W 119°25'1110.7
2017-Oct-16 13:58N 34°09' W 119°12'0 0.0
2017-Oct-16 13:30N 34°09' W 119°12'0 0.0
2017-Oct-16 13:00N 34°09' W 119°12'0 0.0
2017-Oct-16 12:30N 34°09' W 119°12'0 0.0
2017-Oct-16 11:58N 34°09' W 119°12'0 0.0
2017-Oct-16 11:24N 34°09' W 119°12'0 0.0
2017-Oct-16 10:59N 34°09' W 119°12'0 0.0
2017-Oct-16 10:30N 34°09' W 119°12'0 0.0
2017-Oct-16 09:59N 34°09' W 119°12'0 0.0
2017-Oct-16 09:29N 34°09' W 119°12'0 0.0
2017-Oct-16 08:52N 34°09' W 119°12'0 0.0
2017-Oct-16 08:30N 34°09' W 119°12'0 0.0
2017-Oct-16 07:58N 34°09' W 119°12'0 0.0
2017-Oct-16 07:30N 34°09' W 119°12'0 0.0
2017-Oct-16 06:59N 34°09' W 119°12'0 0.0
2017-Oct-16 06:27N 34°09' W 119°12'0 0.0
2017-Oct-16 05:59N 34°09' W 119°12'0 0.0
2017-Oct-16 05:29N 34°09' W 119°12'0 0.0
2017-Oct-16 04:59N 34°09' W 119°12'0 0.0
2017-Oct-16 04:29N 34°09' W 119°12'0 0.0
2017-Oct-16 04:00N 34°09' W 119°12'3 6.3
2017-Oct-16 03:30N 34°09' W 119°16'815.9
2017-Oct-16 03:00N 34°11' W 119°25'3 6.2
2017-Oct-16 02:30N 34°10' W 119°21'811.1
2017-Oct-16 01:48N 34°09' W 119°12'0 0.0
2017-Oct-16 01:29N 34°09' W 119°12'0 0.0
2017-Oct-16 01:00N 34°09' W 119°12'0 0.0
2017-Oct-16 00:27N 34°09' W 119°12'512.4
2017-Oct-16 00:00N 34°10' W 119°19'611.0
2017-Oct-15 23:30N 34°11' W 119°25'510.6
2017-Oct-15 23:00N 34°08' W 119°19'611.8
2017-Oct-15 22:30N 34°09' W 119°12'2 5.0
2017-Oct-15 22:00N 34°09' W 119°15'816.6
2017-Oct-15 21:30N 34°11' W 119°25'0 0.4
2017-Oct-15 20:59N 34°11' W 119°25'4 8.5
2017-Oct-15 20:28N 34°10' W 119°20'613.4
2017-Oct-15 20:00N 34°09' W 119°12'3 5.8
2017-Oct-15 19:30N 34°09' W 119°16'816.2
2017-Oct-15 19:00N 34°11' W 119°25'1 1.4
2017-Oct-15 18:29N 34°11' W 119°26'0 0.5
2017-Oct-15 18:00N 34°11' W 119°26'0 0.7
2017-Oct-15 17:28N 34°11' W 119°25'3 5.3
2017-Oct-15 17:00N 34°10' W 119°22'815.7
2017-Oct-15 16:28N 34°09' W 119°13'1 2.1
2017-Oct-15 15:58N 34°08' W 119°14'3 6.4
2017-Oct-15 15:30N 34°11' W 119°16'613.0
2017-Oct-15 15:00N 34°11' W 119°23'8 7.4
2017-Oct-15 13:57N 34°09' W 119°14'2 4.2
2017-Oct-15 13:29N 34°09' W 119°12'0 0.0
2017-Oct-15 12:59N 34°09' W 119°12'0 0.0
2017-Oct-15 12:30N 34°09' W 119°12'0 0.0
2017-Oct-15 12:00N 34°09' W 119°12'0 0.0
2017-Oct-15 11:30N 34°09' W 119°12'0 0.0
2017-Oct-15 10:59N 34°09' W 119°12'0 0.0
2017-Oct-15 10:30N 34°09' W 119°12'0 0.0
2017-Oct-15 10:00N 34°09' W 119°12'0 0.0
2017-Oct-15 09:30N 34°09' W 119°12'0 0.0
2017-Oct-15 09:00N 34°09' W 119°12'0 0.0
2017-Oct-15 08:30N 34°09' W 119°12'0 0.0
2017-Oct-15 08:00N 34°09' W 119°12'0 0.0
2017-Oct-15 07:30N 34°09' W 119°12'0 0.0
2017-Oct-15 07:00N 34°09' W 119°12'0 0.0
2017-Oct-15 06:29N 34°09' W 119°12'0 0.0
2017-Oct-15 06:00N 34°09' W 119°12'0 0.0
2017-Oct-15 05:28N 34°09' W 119°12'0 0.0
2017-Oct-15 05:00N 34°09' W 119°12'0 0.0
2017-Oct-15 04:30N 34°09' W 119°12'0 0.0
2017-Oct-15 04:00N 34°09' W 119°12'0 0.0
2017-Oct-15 03:30N 34°09' W 119°12'0 0.0
2017-Oct-15 03:00N 34°09' W 119°12'0 0.0
2017-Oct-15 02:29N 34°09' W 119°12'0 0.0
2017-Oct-15 02:00N 34°09' W 119°12'0 0.0
2017-Oct-15 01:30N 34°09' W 119°12'0 0.0
2017-Oct-15 01:00N 34°09' W 119°12'0 0.0
2017-Oct-15 00:30N 34°09' W 119°12'0 0.0
2017-Oct-15 00:00N 34°09' W 119°12'0 0.0
2017-Oct-14 23:29N 34°09' W 119°12'0 0.0
2017-Oct-14 22:59N 34°09' W 119°12'4 8.5
2017-Oct-14 22:30N 34°07' W 119°17'0 0.0
2017-Oct-14 22:00N 34°07' W 119°17'0 0.0
2017-Oct-14 21:30N 34°07' W 119°17'0 0.0
2017-Oct-14 21:00N 34°07' W 119°17'0 0.0
2017-Oct-14 20:29N 34°07' W 119°17'0 0.0
2017-Oct-14 19:58N 34°07' W 119°17'0 0.0
2017-Oct-14 19:30N 34°07' W 119°17'0 0.0
2017-Oct-14 19:00N 34°07' W 119°17'0 0.0
2017-Oct-14 18:30N 34°07' W 119°17'0 0.0
2017-Oct-14 18:00N 34°07' W 119°17'0 0.0
2017-Oct-14 17:30N 34°07' W 119°17'0 0.2
2017-Oct-14 17:00N 34°07' W 119°17'0 0.2
2017-Oct-14 16:25N 34°07' W 119°17'410.0
2017-Oct-14 16:00N 34°09' W 119°21'4 7.8
2017-Oct-14 15:30N 34°11' W 119°25'0 0.2
2017-Oct-14 15:00N 34°11' W 119°25'1 1.9
2017-Oct-14 14:30N 34°11' W 119°24'815.2
2017-Oct-14 14:00N 34°09' W 119°15'3 5.2
2017-Oct-14 13:31N 34°09' W 119°12'0 0.0
2017-Oct-14 13:00N 34°09' W 119°12'0 0.0
2017-Oct-14 12:30N 34°09' W 119°12'0 0.0
2017-Oct-14 12:00N 34°09' W 119°12'0 0.0
2017-Oct-14 11:30N 34°09' W 119°12'0 0.0
2017-Oct-14 11:00N 34°09' W 119°12'0 0.0
2017-Oct-14 10:30N 34°09' W 119°12'0 0.0
2017-Oct-14 10:00N 34°09' W 119°12'0 0.0
2017-Oct-14 09:27N 34°09' W 119°12'0 0.0
2017-Oct-14 09:00N 34°09' W 119°12'0 0.0
2017-Oct-14 08:30N 34°09' W 119°12'0 0.0
2017-Oct-14 08:00N 34°09' W 119°12'0 0.0
2017-Oct-14 07:30N 34°09' W 119°12'0 0.0
2017-Oct-14 07:00N 34°09' W 119°12'0 0.0
2017-Oct-14 06:30N 34°09' W 119°12'0 0.0
2017-Oct-14 05:59N 34°09' W 119°12'0 0.1
2017-Oct-14 05:23N 34°09' W 119°12'0 0.4
2017-Oct-14 05:00N 34°09' W 119°12'0 0.0
2017-Oct-14 04:30N 34°09' W 119°12'0 0.0
2017-Oct-14 03:59N 34°09' W 119°12'0 0.0
2017-Oct-14 03:30N 34°09' W 119°12'0 0.1
2017-Oct-14 03:00N 34°09' W 119°12'713.6
2017-Oct-14 02:30N 34°10' W 119°20'2 3.8
2017-Oct-14 02:00N 34°10' W 119°23'815.1
2017-Oct-14 01:30N 34°09' W 119°14'1 2.9
2017-Oct-14 01:00N 34°09' W 119°12'0 0.0
2017-Oct-14 00:30N 34°09' W 119°12'0 0.0
2017-Oct-14 00:00N 34°09' W 119°12'0 0.0
2017-Oct-13 23:30N 34°09' W 119°12'3 6.7
2017-Oct-13 23:00N 34°07' W 119°16'713.5
2017-Oct-13 22:30N 34°10' W 119°23'3 5.0
2017-Oct-13 22:00N 34°12' W 119°25'816.1
2017-Oct-13 21:29N 34°20' W 119°29'4 7.7
2017-Oct-13 21:00N 34°23' W 119°30'510.2
2017-Oct-13 20:31N 34°18' W 119°29'816.2
2017-Oct-13 20:00N 34°13' W 119°22'915.9
2017-Oct-13 19:28N 34°09' W 119°13'4 9.4
2017-Oct-13 19:00N 34°09' W 119°18'612.3
2017-Oct-13 18:30N 34°11' W 119°25'0 0.1
2017-Oct-13 18:00N 34°11' W 119°25'0 0.1
2017-Oct-13 17:30N 34°11' W 119°25'815.9
2017-Oct-13 17:00N 34°09' W 119°16'2 3.3
2017-Oct-13 16:30N 34°07' W 119°16'3 6.2
2017-Oct-13 16:00N 34°09' W 119°12'0 0.0
2017-Oct-13 15:29N 34°09' W 119°12'4 7.4
2017-Oct-13 15:00N 34°09' W 119°17'713.1
2017-Oct-13 14:29N 34°11' W 119°25'816.0
2017-Oct-13 14:00N 34°07' W 119°16'4 7.6
2017-Oct-13 13:30N 34°09' W 119°12'0 0.0
2017-Oct-13 13:00N 34°09' W 119°12'0 0.0
2017-Oct-13 12:30N 34°09' W 119°12'0 0.0
2017-Oct-13 12:00N 34°09' W 119°12'0 0.0
2017-Oct-13 11:29N 34°09' W 119°12'0 0.0
2017-Oct-13 11:00N 34°09' W 119°12'0 0.0
2017-Oct-13 10:30N 34°09' W 119°12'0 0.0
2017-Oct-13 10:00N 34°09' W 119°12'0 0.0
2017-Oct-13 09:30N 34°09' W 119°12'0 0.0
2017-Oct-13 08:58N 34°09' W 119°12'0 0.0
2017-Oct-13 08:30N 34°09' W 119°12'0 0.0
2017-Oct-13 08:00N 34°09' W 119°12'0 0.0
2017-Oct-13 07:30N 34°09' W 119°12'0 0.0
2017-Oct-13 07:00N 34°09' W 119°12'0 0.0
2017-Oct-13 06:29N 34°09' W 119°12'0 0.0
2017-Oct-13 06:00N 34°09' W 119°12'0 0.0
2017-Oct-13 05:30N 34°09' W 119°12'0 0.0
2017-Oct-13 04:56N 34°09' W 119°12'0 0.0
2017-Oct-13 04:30N 34°09' W 119°12'0 0.0
2017-Oct-13 04:00N 34°09' W 119°12'0 0.0
2017-Oct-13 03:30N 34°09' W 119°12'0 0.0
2017-Oct-13 03:00N 34°09' W 119°12'610.7
2017-Oct-13 02:29N 34°09' W 119°19'4 9.3
2017-Oct-13 02:00N 34°11' W 119°24'815.7
2017-Oct-13 01:29N 34°09' W 119°14'2 3.2
2017-Oct-13 00:54N 34°09' W 119°12'  

Dump ship's entire track history